sensor_id;sensor_type;location;lat;lon;timestamp;P1;durP1;ratioP1;P2;durP2;ratioP2
60368;SDS011;46208;44.634;10.492;2022-12-24T00:00:14;8.20;;;4.53;;
60368;SDS011;46208;44.634;10.492;2022-12-24T00:03:18;5.15;;;3.13;;
60368;SDS011;46208;44.634;10.492;2022-12-24T00:06:22;6.90;;;4.80;;
60368;SDS011;46208;44.634;10.492;2022-12-24T00:09:26;3.80;;;2.65;;
60368;SDS011;46208;44.634;10.492;2022-12-24T00:12:29;3.42;;;2.05;;
60368;SDS011;46208;44.634;10.492;2022-12-24T00:15:32;3.65;;;3.05;;
60368;SDS011;46208;44.634;10.492;2022-12-24T00:18:35;3.78;;;2.50;;
60368;SDS011;46208;44.634;10.492;2022-12-24T00:21:39;5.28;;;3.30;;
60368;SDS011;46208;44.634;10.492;2022-12-24T00:24:42;5.03;;;3.58;;
60368;SDS011;46208;44.634;10.492;2022-12-24T00:27:45;5.55;;;3.08;;
60368;SDS011;46208;44.634;10.492;2022-12-24T00:30:48;5.70;;;4.05;;
60368;SDS011;46208;44.634;10.492;2022-12-24T00:33:51;11.18;;;4.78;;
60368;SDS011;46208;44.634;10.492;2022-12-24T00:36:55;5.03;;;3.90;;
60368;SDS011;46208;44.634;10.492;2022-12-24T00:39:58;8.00;;;3.53;;
60368;SDS011;46208;44.634;10.492;2022-12-24T00:43:01;4.68;;;2.75;;
60368;SDS011;46208;44.634;10.492;2022-12-24T00:46:04;3.83;;;2.90;;
60368;SDS011;46208;44.634;10.492;2022-12-24T00:49:08;5.93;;;3.50;;
60368;SDS011;46208;44.634;10.492;2022-12-24T00:52:13;5.20;;;2.42;;
60368;SDS011;46208;44.634;10.492;2022-12-24T00:55:16;3.42;;;3.13;;
60368;SDS011;46208;44.634;10.492;2022-12-24T00:58:19;5.25;;;3.90;;
60368;SDS011;46208;44.634;10.492;2022-12-24T01:01:23;6.65;;;2.80;;
60368;SDS011;46208;44.634;10.492;2022-12-24T01:04:26;4.18;;;3.25;;
60368;SDS011;46208;44.634;10.492;2022-12-24T01:07:48;10.75;;;3.67;;
60368;SDS011;46208;44.634;10.492;2022-12-24T01:10:52;6.35;;;3.08;;
60368;SDS011;46208;44.634;10.492;2022-12-24T01:13:55;4.78;;;3.15;;
60368;SDS011;46208;44.634;10.492;2022-12-24T01:16:58;3.13;;;2.45;;
60368;SDS011;46208;44.634;10.492;2022-12-24T01:20:02;4.30;;;2.40;;
60368;SDS011;46208;44.634;10.492;2022-12-24T01:23:05;6.22;;;4.72;;
60368;SDS011;46208;44.634;10.492;2022-12-24T01:26:08;3.72;;;2.17;;
60368;SDS011;46208;44.634;10.492;2022-12-24T01:29:12;3.20;;;2.72;;
60368;SDS011;46208;44.634;10.492;2022-12-24T01:32:15;5.75;;;3.15;;
60368;SDS011;46208;44.634;10.492;2022-12-24T01:35:18;3.75;;;3.42;;
60368;SDS011;46208;44.634;10.492;2022-12-24T01:38:21;6.05;;;4.25;;
60368;SDS011;46208;44.634;10.492;2022-12-24T01:41:25;5.82;;;4.65;;
60368;SDS011;46208;44.634;10.492;2022-12-24T01:44:47;6.18;;;4.30;;
60368;SDS011;46208;44.634;10.492;2022-12-24T01:47:53;5.40;;;2.88;;
60368;SDS011;46208;44.634;10.492;2022-12-24T01:50:58;3.90;;;3.60;;
60368;SDS011;46208;44.634;10.492;2022-12-24T01:57:10;4.00;;;3.38;;
60368;SDS011;46208;44.634;10.492;2022-12-24T02:00:15;6.45;;;3.80;;
60368;SDS011;46208;44.634;10.492;2022-12-24T02:03:18;6.35;;;4.38;;
60368;SDS011;46208;44.634;10.492;2022-12-24T02:06:22;12.15;;;4.90;;
60368;SDS011;46208;44.634;10.492;2022-12-24T02:09:26;5.18;;;3.40;;
60368;SDS011;46208;44.634;10.492;2022-12-24T02:12:31;7.28;;;3.13;;
60368;SDS011;46208;44.634;10.492;2022-12-24T02:34:46;4.72;;;3.65;;
60368;SDS011;46208;44.634;10.492;2022-12-24T02:41:16;5.90;;;4.80;;
60368;SDS011;46208;44.634;10.492;2022-12-24T02:44:22;6.47;;;3.75;;
60368;SDS011;46208;44.634;10.492;2022-12-24T02:47:26;4.38;;;3.83;;
60368;SDS011;46208;44.634;10.492;2022-12-24T02:50:30;6.00;;;4.22;;
60368;SDS011;46208;44.634;10.492;2022-12-24T02:53:34;3.70;;;3.33;;
60368;SDS011;46208;44.634;10.492;2022-12-24T02:57:22;3.92;;;2.58;;
60368;SDS011;46208;44.634;10.492;2022-12-24T03:00:05;8.13;;;4.07;;
60368;SDS011;46208;44.634;10.492;2022-12-24T03:03:13;5.05;;;3.55;;
60368;SDS011;46208;44.634;10.492;2022-12-24T03:09:50;6.88;;;4.50;;
60368;SDS011;46208;44.634;10.492;2022-12-24T03:13:05;7.25;;;4.50;;
60368;SDS011;46208;44.634;10.492;2022-12-24T03:16:14;4.07;;;3.28;;
60368;SDS011;46208;44.634;10.492;2022-12-24T03:19:18;6.00;;;4.00;;
60368;SDS011;46208;44.634;10.492;2022-12-24T03:22:22;5.20;;;3.75;;
60368;SDS011;46208;44.634;10.492;2022-12-24T03:25:27;6.97;;;4.20;;
60368;SDS011;46208;44.634;10.492;2022-12-24T03:28:31;5.82;;;3.95;;
60368;SDS011;46208;44.634;10.492;2022-12-24T03:31:41;6.25;;;4.40;;
60368;SDS011;46208;44.634;10.492;2022-12-24T03:34:44;10.50;;;4.53;;
60368;SDS011;46208;44.634;10.492;2022-12-24T03:37:47;8.32;;;4.13;;
60368;SDS011;46208;44.634;10.492;2022-12-24T03:40:51;5.20;;;4.60;;
60368;SDS011;46208;44.634;10.492;2022-12-24T03:43:54;8.05;;;5.13;;
60368;SDS011;46208;44.634;10.492;2022-12-24T03:46:57;6.10;;;4.50;;
60368;SDS011;46208;44.634;10.492;2022-12-24T03:50:00;7.25;;;3.55;;
60368;SDS011;46208;44.634;10.492;2022-12-24T03:53:04;12.10;;;5.18;;
60368;SDS011;46208;44.634;10.492;2022-12-24T03:56:07;5.72;;;4.35;;
60368;SDS011;46208;44.634;10.492;2022-12-24T03:59:10;9.02;;;5.38;;
60368;SDS011;46208;44.634;10.492;2022-12-24T04:02:13;8.23;;;5.78;;
60368;SDS011;46208;44.634;10.492;2022-12-24T04:05:17;6.13;;;3.97;;
60368;SDS011;46208;44.634;10.492;2022-12-24T04:08:20;6.95;;;3.85;;
60368;SDS011;46208;44.634;10.492;2022-12-24T04:11:23;9.27;;;5.32;;
60368;SDS011;46208;44.634;10.492;2022-12-24T04:14:27;5.22;;;3.25;;
60368;SDS011;46208;44.634;10.492;2022-12-24T04:17:30;3.80;;;3.00;;
60368;SDS011;46208;44.634;10.492;2022-12-24T04:20:33;4.30;;;2.92;;
60368;SDS011;46208;44.634;10.492;2022-12-24T04:23:37;4.20;;;3.80;;
60368;SDS011;46208;44.634;10.492;2022-12-24T04:26:41;3.08;;;2.55;;
60368;SDS011;46208;44.634;10.492;2022-12-24T04:29:44;3.78;;;3.10;;
60368;SDS011;46208;44.634;10.492;2022-12-24T04:32:47;7.45;;;3.63;;
60368;SDS011;46208;44.634;10.492;2022-12-24T04:35:51;3.83;;;3.53;;
60368;SDS011;46208;44.634;10.492;2022-12-24T04:38:54;9.50;;;3.70;;
60368;SDS011;46208;44.634;10.492;2022-12-24T04:41:58;6.65;;;3.70;;
60368;SDS011;46208;44.634;10.492;2022-12-24T04:45:01;7.72;;;3.05;;
60368;SDS011;46208;44.634;10.492;2022-12-24T04:48:04;2.88;;;2.17;;
60368;SDS011;46208;44.634;10.492;2022-12-24T04:51:07;4.10;;;2.85;;
60368;SDS011;46208;44.634;10.492;2022-12-24T04:54:11;3.42;;;2.88;;
60368;SDS011;46208;44.634;10.492;2022-12-24T04:57:14;5.70;;;3.63;;
60368;SDS011;46208;44.634;10.492;2022-12-24T05:00:17;5.07;;;2.22;;
60368;SDS011;46208;44.634;10.492;2022-12-24T05:03:20;5.45;;;3.22;;
60368;SDS011;46208;44.634;10.492;2022-12-24T05:06:25;3.38;;;3.10;;
60368;SDS011;46208;44.634;10.492;2022-12-24T05:09:29;5.75;;;3.63;;
60368;SDS011;46208;44.634;10.492;2022-12-24T05:12:32;3.30;;;1.83;;
60368;SDS011;46208;44.634;10.492;2022-12-24T05:15:36;7.18;;;4.60;;
60368;SDS011;46208;44.634;10.492;2022-12-24T05:18:39;4.22;;;2.25;;
60368;SDS011;46208;44.634;10.492;2022-12-24T05:21:42;6.80;;;3.45;;
60368;SDS011;46208;44.634;10.492;2022-12-24T05:24:45;7.18;;;4.07;;
60368;SDS011;46208;44.634;10.492;2022-12-24T05:28:07;15.15;;;4.15;;
60368;SDS011;46208;44.634;10.492;2022-12-24T05:31:10;4.38;;;3.10;;
60368;SDS011;46208;44.634;10.492;2022-12-24T05:34:14;4.53;;;4.15;;
60368;SDS011;46208;44.634;10.492;2022-12-24T05:37:17;3.90;;;3.60;;
60368;SDS011;46208;44.634;10.492;2022-12-24T05:40:20;6.18;;;5.25;;
60368;SDS011;46208;44.634;10.492;2022-12-24T05:43:24;7.00;;;3.97;;
60368;SDS011;46208;44.634;10.492;2022-12-24T05:46:28;5.28;;;3.70;;
60368;SDS011;46208;44.634;10.492;2022-12-24T05:49:31;5.97;;;4.80;;
60368;SDS011;46208;44.634;10.492;2022-12-24T05:52:35;4.90;;;3.50;;
60368;SDS011;46208;44.634;10.492;2022-12-24T05:55:38;4.47;;;3.50;;
60368;SDS011;46208;44.634;10.492;2022-12-24T05:58:41;3.60;;;2.45;;
60368;SDS011;46208;44.634;10.492;2022-12-24T06:01:45;4.80;;;4.28;;
60368;SDS011;46208;44.634;10.492;2022-12-24T06:04:50;5.97;;;3.83;;
60368;SDS011;46208;44.634;10.492;2022-12-24T06:07:53;4.00;;;3.63;;
60368;SDS011;46208;44.634;10.492;2022-12-24T06:11:00;6.75;;;5.35;;
60368;SDS011;46208;44.634;10.492;2022-12-24T06:14:04;5.07;;;3.63;;
60368;SDS011;46208;44.634;10.492;2022-12-24T06:17:07;4.15;;;3.72;;
60368;SDS011;46208;44.634;10.492;2022-12-24T06:20:11;7.25;;;2.58;;
60368;SDS011;46208;44.634;10.492;2022-12-24T06:23:14;7.15;;;4.15;;
60368;SDS011;46208;44.634;10.492;2022-12-24T06:26:18;6.22;;;2.50;;
60368;SDS011;46208;44.634;10.492;2022-12-24T06:29:22;4.10;;;3.72;;
60368;SDS011;46208;44.634;10.492;2022-12-24T06:32:26;7.10;;;4.18;;
60368;SDS011;46208;44.634;10.492;2022-12-24T06:35:32;5.20;;;4.70;;
60368;SDS011;46208;44.634;10.492;2022-12-24T06:38:36;6.05;;;3.53;;
60368;SDS011;46208;44.634;10.492;2022-12-24T06:41:39;5.53;;;3.42;;
60368;SDS011;46208;44.634;10.492;2022-12-24T06:44:43;9.05;;;4.55;;
60368;SDS011;46208;44.634;10.492;2022-12-24T06:47:46;3.00;;;2.75;;
60368;SDS011;46208;44.634;10.492;2022-12-24T06:50:49;6.20;;;3.53;;
60368;SDS011;46208;44.634;10.492;2022-12-24T06:53:52;7.60;;;3.97;;
60368;SDS011;46208;44.634;10.492;2022-12-24T06:56:57;4.30;;;3.88;;
60368;SDS011;46208;44.634;10.492;2022-12-24T07:00:00;6.53;;;4.43;;
60368;SDS011;46208;44.634;10.492;2022-12-24T07:03:03;3.75;;;3.42;;
60368;SDS011;46208;44.634;10.492;2022-12-24T07:06:09;6.00;;;3.10;;
60368;SDS011;46208;44.634;10.492;2022-12-24T07:09:14;3.85;;;3.47;;
60368;SDS011;46208;44.634;10.492;2022-12-24T07:12:18;4.47;;;3.38;;
60368;SDS011;46208;44.634;10.492;2022-12-24T07:15:21;5.32;;;2.88;;
60368;SDS011;46208;44.634;10.492;2022-12-24T07:18:24;4.85;;;3.22;;
60368;SDS011;46208;44.634;10.492;2022-12-24T07:21:27;4.43;;;3.17;;
60368;SDS011;46208;44.634;10.492;2022-12-24T07:24:30;5.10;;;3.47;;
60368;SDS011;46208;44.634;10.492;2022-12-24T07:27:34;5.28;;;3.55;;
60368;SDS011;46208;44.634;10.492;2022-12-24T07:30:37;4.22;;;2.03;;
60368;SDS011;46208;44.634;10.492;2022-12-24T07:33:40;9.65;;;3.40;;
60368;SDS011;46208;44.634;10.492;2022-12-24T07:36:43;5.32;;;4.00;;
60368;SDS011;46208;44.634;10.492;2022-12-24T07:39:46;6.72;;;5.80;;
60368;SDS011;46208;44.634;10.492;2022-12-24T07:42:50;6.72;;;4.07;;
60368;SDS011;46208;44.634;10.492;2022-12-24T07:45:54;2.47;;;2.25;;
60368;SDS011;46208;44.634;10.492;2022-12-24T07:48:57;5.25;;;3.40;;
60368;SDS011;46208;44.634;10.492;2022-12-24T07:52:01;3.25;;;2.95;;
60368;SDS011;46208;44.634;10.492;2022-12-24T07:55:04;4.10;;;3.75;;
60368;SDS011;46208;44.634;10.492;2022-12-24T07:58:08;6.68;;;3.35;;
60368;SDS011;46208;44.634;10.492;2022-12-24T08:01:11;4.05;;;3.50;;
60368;SDS011;46208;44.634;10.492;2022-12-24T08:04:14;6.88;;;3.63;;
60368;SDS011;46208;44.634;10.492;2022-12-24T08:07:17;12.43;;;4.88;;
60368;SDS011;46208;44.634;10.492;2022-12-24T08:10:20;8.07;;;4.47;;
60368;SDS011;46208;44.634;10.492;2022-12-24T08:13:23;9.13;;;6.50;;
60368;SDS011;46208;44.634;10.492;2022-12-24T08:16:26;9.00;;;5.88;;
60368;SDS011;46208;44.634;10.492;2022-12-24T08:19:30;9.48;;;5.95;;
60368;SDS011;46208;44.634;10.492;2022-12-24T08:22:33;7.82;;;3.67;;
60368;SDS011;46208;44.634;10.492;2022-12-24T08:25:36;6.57;;;4.72;;
60368;SDS011;46208;44.634;10.492;2022-12-24T08:28:40;6.53;;;4.65;;
60368;SDS011;46208;44.634;10.492;2022-12-24T08:31:44;8.02;;;5.72;;
60368;SDS011;46208;44.634;10.492;2022-12-24T08:34:47;8.57;;;3.40;;
60368;SDS011;46208;44.634;10.492;2022-12-24T08:37:50;6.97;;;4.45;;
60368;SDS011;46208;44.634;10.492;2022-12-24T08:40:54;9.23;;;4.80;;
60368;SDS011;46208;44.634;10.492;2022-12-24T08:43:58;6.00;;;4.43;;
60368;SDS011;46208;44.634;10.492;2022-12-24T08:47:01;8.30;;;5.18;;
60368;SDS011;46208;44.634;10.492;2022-12-24T08:50:05;5.78;;;5.03;;
60368;SDS011;46208;44.634;10.492;2022-12-24T08:53:09;7.53;;;4.78;;
60368;SDS011;46208;44.634;10.492;2022-12-24T08:56:12;8.23;;;5.20;;
60368;SDS011;46208;44.634;10.492;2022-12-24T08:59:15;6.95;;;5.28;;
60368;SDS011;46208;44.634;10.492;2022-12-24T09:02:19;4.55;;;3.33;;
60368;SDS011;46208;44.634;10.492;2022-12-24T09:05:22;12.35;;;7.20;;
60368;SDS011;46208;44.634;10.492;2022-12-24T09:08:26;11.50;;;4.97;;
60368;SDS011;46208;44.634;10.492;2022-12-24T09:11:32;12.73;;;6.60;;
60368;SDS011;46208;44.634;10.492;2022-12-24T09:14:35;10.63;;;5.25;;
60368;SDS011;46208;44.634;10.492;2022-12-24T09:17:39;6.75;;;5.22;;
60368;SDS011;46208;44.634;10.492;2022-12-24T09:20:42;7.22;;;4.75;;
60368;SDS011;46208;44.634;10.492;2022-12-24T09:23:45;8.25;;;4.90;;
60368;SDS011;46208;44.634;10.492;2022-12-24T09:26:49;7.65;;;5.53;;
60368;SDS011;46208;44.634;10.492;2022-12-24T09:29:52;6.72;;;4.45;;
60368;SDS011;46208;44.634;10.492;2022-12-24T09:32:55;7.43;;;4.82;;
60368;SDS011;46208;44.634;10.492;2022-12-24T09:35:58;8.73;;;4.47;;
60368;SDS011;46208;44.634;10.492;2022-12-24T09:39:01;5.25;;;3.55;;
60368;SDS011;46208;44.634;10.492;2022-12-24T09:42:16;10.55;;;4.93;;
60368;SDS011;46208;44.634;10.492;2022-12-24T09:45:32;7.93;;;4.67;;
60368;SDS011;46208;44.634;10.492;2022-12-24T09:48:38;5.05;;;3.22;;
60368;SDS011;46208;44.634;10.492;2022-12-24T09:51:44;4.90;;;4.43;;
60368;SDS011;46208;44.634;10.492;2022-12-24T09:54:53;6.63;;;3.80;;
60368;SDS011;46208;44.634;10.492;2022-12-24T10:01:01;9.25;;;4.22;;
60368;SDS011;46208;44.634;10.492;2022-12-24T10:04:09;6.55;;;4.55;;
60368;SDS011;46208;44.634;10.492;2022-12-24T10:29:48;4.93;;;3.60;;
60368;SDS011;46208;44.634;10.492;2022-12-24T10:32:53;10.30;;;4.72;;
60368;SDS011;46208;44.634;10.492;2022-12-24T10:35:57;7.05;;;4.88;;
60368;SDS011;46208;44.634;10.492;2022-12-24T10:39:00;8.88;;;6.72;;
60368;SDS011;46208;44.634;10.492;2022-12-24T10:42:04;7.68;;;4.78;;
60368;SDS011;46208;44.634;10.492;2022-12-24T10:45:09;10.63;;;5.22;;
60368;SDS011;46208;44.634;10.492;2022-12-24T10:48:19;9.10;;;4.85;;
60368;SDS011;46208;44.634;10.492;2022-12-24T10:54:33;6.43;;;2.92;;
60368;SDS011;46208;44.634;10.492;2022-12-24T10:57:41;4.50;;;4.18;;
60368;SDS011;46208;44.634;10.492;2022-12-24T11:00:49;4.13;;;3.28;;
60368;SDS011;46208;44.634;10.492;2022-12-24T11:03:59;6.85;;;4.15;;
60368;SDS011;46208;44.634;10.492;2022-12-24T11:07:04;8.27;;;4.75;;
60368;SDS011;46208;44.634;10.492;2022-12-24T11:10:12;7.32;;;4.53;;
60368;SDS011;46208;44.634;10.492;2022-12-24T11:16:33;10.80;;;5.43;;
60368;SDS011;46208;44.634;10.492;2022-12-24T11:19:37;10.07;;;4.80;;
60368;SDS011;46208;44.634;10.492;2022-12-24T11:22:42;5.95;;;4.35;;
60368;SDS011;46208;44.634;10.492;2022-12-24T11:25:50;5.18;;;4.28;;
60368;SDS011;46208;44.634;10.492;2022-12-24T11:32:17;8.20;;;5.93;;
60368;SDS011;46208;44.634;10.492;2022-12-24T11:35:22;6.68;;;4.93;;
60368;SDS011;46208;44.634;10.492;2022-12-24T11:38:26;9.50;;;4.75;;
60368;SDS011;46208;44.634;10.492;2022-12-24T11:41:35;6.80;;;6.13;;
60368;SDS011;46208;44.634;10.492;2022-12-24T11:44:38;10.07;;;6.07;;
60368;SDS011;46208;44.634;10.492;2022-12-24T11:47:48;7.88;;;6.63;;
60368;SDS011;46208;44.634;10.492;2022-12-24T11:50:57;11.40;;;6.20;;
60368;SDS011;46208;44.634;10.492;2022-12-24T11:57:04;11.32;;;4.95;;
60368;SDS011;46208;44.634;10.492;2022-12-24T12:00:10;12.60;;;6.50;;
60368;SDS011;46208;44.634;10.492;2022-12-24T12:09:54;8.15;;;5.68;;
60368;SDS011;46208;44.634;10.492;2022-12-24T12:13:01;14.63;;;9.23;;
60368;SDS011;46208;44.634;10.492;2022-12-24T12:19:37;14.73;;;7.28;;
60368;SDS011;46208;44.634;10.492;2022-12-24T12:22:49;6.70;;;5.40;;
60368;SDS011;46208;44.634;10.492;2022-12-24T12:25:57;15.70;;;7.65;;
60368;SDS011;46208;44.634;10.492;2022-12-24T12:32:10;10.30;;;6.65;;
60368;SDS011;46208;44.634;10.492;2022-12-24T12:35:25;9.75;;;6.07;;
60368;SDS011;46208;44.634;10.492;2022-12-24T12:38:30;10.25;;;6.95;;
60368;SDS011;46208;44.634;10.492;2022-12-24T12:41:37;14.95;;;9.20;;
60368;SDS011;46208;44.634;10.492;2022-12-24T12:57:23;9.00;;;7.60;;
60368;SDS011;46208;44.634;10.492;2022-12-24T13:00:29;14.43;;;8.57;;
60368;SDS011;46208;44.634;10.492;2022-12-24T13:03:47;25.80;;;10.00;;
60368;SDS011;46208;44.634;10.492;2022-12-24T13:22:33;18.23;;;10.65;;
60368;SDS011;46208;44.634;10.492;2022-12-24T13:25:41;13.15;;;10.40;;
60368;SDS011;46208;44.634;10.492;2022-12-24T13:28:45;15.82;;;10.15;;
60368;SDS011;46208;44.634;10.492;2022-12-24T13:31:49;13.13;;;9.60;;
60368;SDS011;46208;44.634;10.492;2022-12-24T13:35:36;18.38;;;9.40;;
60368;SDS011;46208;44.634;10.492;2022-12-24T13:44:41;18.83;;;10.32;;
60368;SDS011;46208;44.634;10.492;2022-12-24T13:47:44;19.08;;;9.82;;
60368;SDS011;46208;44.634;10.492;2022-12-24T13:50:48;15.35;;;11.18;;
60368;SDS011;46208;44.634;10.492;2022-12-24T13:53:56;20.25;;;11.15;;
60368;SDS011;46208;44.634;10.492;2022-12-24T13:57:00;16.27;;;11.93;;
60368;SDS011;46208;44.634;10.492;2022-12-24T14:03:19;15.73;;;10.07;;
60368;SDS011;46208;44.634;10.492;2022-12-24T14:06:37;22.55;;;11.40;;
60368;SDS011;46208;44.634;10.492;2022-12-24T14:09:44;13.30;;;9.40;;
60368;SDS011;46208;44.634;10.492;2022-12-24T14:12:51;16.15;;;9.43;;
60368;SDS011;46208;44.634;10.492;2022-12-24T14:18:59;14.55;;;8.18;;
60368;SDS011;46208;44.634;10.492;2022-12-24T14:25:14;18.80;;;9.77;;
60368;SDS011;46208;44.634;10.492;2022-12-24T14:28:19;18.27;;;9.18;;
60368;SDS011;46208;44.634;10.492;2022-12-24T14:31:24;19.23;;;10.98;;
60368;SDS011;46208;44.634;10.492;2022-12-24T14:34:27;14.90;;;9.75;;
60368;SDS011;46208;44.634;10.492;2022-12-24T14:37:31;13.30;;;8.77;;
60368;SDS011;46208;44.634;10.492;2022-12-24T14:44:09;12.40;;;8.80;;
60368;SDS011;46208;44.634;10.492;2022-12-24T14:48:18;12.73;;;7.07;;
60368;SDS011;46208;44.634;10.492;2022-12-24T14:50:57;8.23;;;6.80;;
60368;SDS011;46208;44.634;10.492;2022-12-24T14:54:24;17.63;;;9.93;;
60368;SDS011;46208;44.634;10.492;2022-12-24T14:57:30;11.88;;;7.82;;
60368;SDS011;46208;44.634;10.492;2022-12-24T15:00:34;16.42;;;10.27;;
60368;SDS011;46208;44.634;10.492;2022-12-24T15:03:37;14.48;;;8.85;;
60368;SDS011;46208;44.634;10.492;2022-12-24T15:06:59;13.95;;;9.77;;
60368;SDS011;46208;44.634;10.492;2022-12-24T15:10:06;12.00;;;8.98;;
60368;SDS011;46208;44.634;10.492;2022-12-24T15:16:30;11.05;;;6.82;;
60368;SDS011;46208;44.634;10.492;2022-12-24T15:19:35;15.77;;;10.57;;
60368;SDS011;46208;44.634;10.492;2022-12-24T15:22:39;14.23;;;8.43;;
60368;SDS011;46208;44.634;10.492;2022-12-24T15:25:44;13.35;;;8.45;;
60368;SDS011;46208;44.634;10.492;2022-12-24T15:28:47;11.88;;;8.25;;
60368;SDS011;46208;44.634;10.492;2022-12-24T15:32:00;13.68;;;8.25;;
60368;SDS011;46208;44.634;10.492;2022-12-24T15:35:04;14.73;;;8.63;;
60368;SDS011;46208;44.634;10.492;2022-12-24T15:38:28;13.63;;;7.60;;
60368;SDS011;46208;44.634;10.492;2022-12-24T15:41:36;13.85;;;7.90;;
60368;SDS011;46208;44.634;10.492;2022-12-24T15:45:05;14.15;;;7.38;;
60368;SDS011;46208;44.634;10.492;2022-12-24T15:48:10;23.73;;;9.65;;
60368;SDS011;46208;44.634;10.492;2022-12-24T15:51:19;12.00;;;8.02;;
60368;SDS011;46208;44.634;10.492;2022-12-24T15:54:23;10.73;;;8.27;;
60368;SDS011;46208;44.634;10.492;2022-12-24T15:57:30;10.77;;;8.93;;
60368;SDS011;46208;44.634;10.492;2022-12-24T16:00:34;15.30;;;7.17;;
60368;SDS011;46208;44.634;10.492;2022-12-24T16:03:53;13.48;;;7.63;;
60368;SDS011;46208;44.634;10.492;2022-12-24T16:06:57;13.15;;;7.40;;
60368;SDS011;46208;44.634;10.492;2022-12-24T16:10:00;14.98;;;7.03;;
60368;SDS011;46208;44.634;10.492;2022-12-24T16:13:18;18.45;;;9.07;;
60368;SDS011;46208;44.634;10.492;2022-12-24T16:16:29;16.40;;;9.75;;
60368;SDS011;46208;44.634;10.492;2022-12-24T16:19:33;15.85;;;11.27;;
60368;SDS011;46208;44.634;10.492;2022-12-24T16:22:36;12.63;;;7.03;;
60368;SDS011;46208;44.634;10.492;2022-12-24T16:25:42;13.35;;;7.88;;
60368;SDS011;46208;44.634;10.492;2022-12-24T16:28:45;12.07;;;7.15;;
60368;SDS011;46208;44.634;10.492;2022-12-24T16:31:52;13.25;;;8.95;;
60368;SDS011;46208;44.634;10.492;2022-12-24T16:34:56;10.10;;;7.50;;
60368;SDS011;46208;44.634;10.492;2022-12-24T16:38:01;14.38;;;9.90;;
60368;SDS011;46208;44.634;10.492;2022-12-24T16:41:05;10.00;;;6.28;;
60368;SDS011;46208;44.634;10.492;2022-12-24T16:44:08;7.75;;;6.97;;
60368;SDS011;46208;44.634;10.492;2022-12-24T16:47:23;10.48;;;7.35;;
60368;SDS011;46208;44.634;10.492;2022-12-24T16:50:27;14.30;;;8.80;;
60368;SDS011;46208;44.634;10.492;2022-12-24T16:53:31;13.55;;;7.18;;
60368;SDS011;46208;44.634;10.492;2022-12-24T16:56:34;16.63;;;8.45;;
60368;SDS011;46208;44.634;10.492;2022-12-24T16:59:37;9.68;;;8.18;;
60368;SDS011;46208;44.634;10.492;2022-12-24T17:02:41;14.88;;;9.88;;
60368;SDS011;46208;44.634;10.492;2022-12-24T17:05:44;12.90;;;8.73;;
60368;SDS011;46208;44.634;10.492;2022-12-24T17:08:47;10.05;;;8.93;;
60368;SDS011;46208;44.634;10.492;2022-12-24T17:11:51;19.30;;;12.73;;
60368;SDS011;46208;44.634;10.492;2022-12-24T17:14:54;13.10;;;7.75;;
60368;SDS011;46208;44.634;10.492;2022-12-24T17:17:57;12.85;;;7.60;;
60368;SDS011;46208;44.634;10.492;2022-12-24T17:21:01;15.68;;;8.90;;
60368;SDS011;46208;44.634;10.492;2022-12-24T17:24:05;11.43;;;7.13;;
60368;SDS011;46208;44.634;10.492;2022-12-24T17:27:09;15.25;;;7.60;;
60368;SDS011;46208;44.634;10.492;2022-12-24T17:30:12;9.68;;;6.57;;
60368;SDS011;46208;44.634;10.492;2022-12-24T17:33:15;11.85;;;7.03;;
60368;SDS011;46208;44.634;10.492;2022-12-24T17:36:18;12.23;;;7.25;;
60368;SDS011;46208;44.634;10.492;2022-12-24T17:39:22;15.77;;;6.72;;
60368;SDS011;46208;44.634;10.492;2022-12-24T17:42:25;15.43;;;6.85;;
60368;SDS011;46208;44.634;10.492;2022-12-24T17:45:28;12.75;;;9.40;;
60368;SDS011;46208;44.634;10.492;2022-12-24T17:48:31;9.75;;;7.13;;
60368;SDS011;46208;44.634;10.492;2022-12-24T17:51:35;13.55;;;7.40;;
60368;SDS011;46208;44.634;10.492;2022-12-24T17:54:38;13.02;;;9.63;;
60368;SDS011;46208;44.634;10.492;2022-12-24T17:57:41;18.55;;;7.68;;
60368;SDS011;46208;44.634;10.492;2022-12-24T18:00:44;10.27;;;7.60;;
60368;SDS011;46208;44.634;10.492;2022-12-24T18:03:49;15.07;;;10.40;;
60368;SDS011;46208;44.634;10.492;2022-12-24T18:06:52;16.70;;;9.40;;
60368;SDS011;46208;44.634;10.492;2022-12-24T18:09:55;17.58;;;9.40;;
60368;SDS011;46208;44.634;10.492;2022-12-24T18:12:58;21.95;;;11.15;;
60368;SDS011;46208;44.634;10.492;2022-12-24T18:16:02;13.80;;;9.00;;
60368;SDS011;46208;44.634;10.492;2022-12-24T18:19:06;20.70;;;12.70;;
60368;SDS011;46208;44.634;10.492;2022-12-24T18:22:10;16.70;;;9.23;;
60368;SDS011;46208;44.634;10.492;2022-12-24T18:25:14;16.20;;;10.02;;
60368;SDS011;46208;44.634;10.492;2022-12-24T18:28:17;17.05;;;11.77;;
60368;SDS011;46208;44.634;10.492;2022-12-24T18:31:20;21.10;;;10.63;;
60368;SDS011;46208;44.634;10.492;2022-12-24T18:34:24;24.80;;;13.02;;
60368;SDS011;46208;44.634;10.492;2022-12-24T18:37:27;14.63;;;11.13;;
60368;SDS011;46208;44.634;10.492;2022-12-24T18:40:30;15.32;;;8.25;;
60368;SDS011;46208;44.634;10.492;2022-12-24T18:43:33;14.75;;;10.20;;
60368;SDS011;46208;44.634;10.492;2022-12-24T18:46:37;19.27;;;11.43;;
60368;SDS011;46208;44.634;10.492;2022-12-24T18:49:40;14.80;;;9.02;;
60368;SDS011;46208;44.634;10.492;2022-12-24T18:52:43;14.93;;;8.48;;
60368;SDS011;46208;44.634;10.492;2022-12-24T18:55:46;17.10;;;8.77;;
60368;SDS011;46208;44.634;10.492;2022-12-24T18:58:57;11.75;;;8.95;;
60368;SDS011;46208;44.634;10.492;2022-12-24T19:02:02;16.10;;;8.75;;
60368;SDS011;46208;44.634;10.492;2022-12-24T19:05:06;17.73;;;9.20;;
60368;SDS011;46208;44.634;10.492;2022-12-24T19:08:10;15.25;;;10.20;;
60368;SDS011;46208;44.634;10.492;2022-12-24T19:11:13;21.83;;;13.35;;
60368;SDS011;46208;44.634;10.492;2022-12-24T19:14:16;13.10;;;8.68;;
60368;SDS011;46208;44.634;10.492;2022-12-24T19:17:21;16.98;;;12.55;;
60368;SDS011;46208;44.634;10.492;2022-12-24T19:20:25;83.10;;;38.30;;
60368;SDS011;46208;44.634;10.492;2022-12-24T19:23:29;24.20;;;14.60;;
60368;SDS011;46208;44.634;10.492;2022-12-24T19:26:32;15.63;;;9.23;;
60368;SDS011;46208;44.634;10.492;2022-12-24T19:29:35;20.75;;;11.38;;
60368;SDS011;46208;44.634;10.492;2022-12-24T19:32:38;13.65;;;10.45;;
60368;SDS011;46208;44.634;10.492;2022-12-24T19:35:41;18.35;;;10.05;;
60368;SDS011;46208;44.634;10.492;2022-12-24T19:38:44;15.27;;;8.73;;
60368;SDS011;46208;44.634;10.492;2022-12-24T19:41:47;18.63;;;13.30;;
60368;SDS011;46208;44.634;10.492;2022-12-24T19:44:51;20.05;;;11.93;;
60368;SDS011;46208;44.634;10.492;2022-12-24T19:47:54;14.38;;;9.63;;
60368;SDS011;46208;44.634;10.492;2022-12-24T19:51:04;21.25;;;8.88;;
60368;SDS011;46208;44.634;10.492;2022-12-24T19:54:08;19.40;;;12.27;;
60368;SDS011;46208;44.634;10.492;2022-12-24T19:57:12;22.05;;;12.35;;
60368;SDS011;46208;44.634;10.492;2022-12-24T20:00:16;23.73;;;12.02;;
60368;SDS011;46208;44.634;10.492;2022-12-24T20:03:20;18.60;;;9.30;;
60368;SDS011;46208;44.634;10.492;2022-12-24T20:06:25;20.05;;;9.73;;
60368;SDS011;46208;44.634;10.492;2022-12-24T20:09:29;17.92;;;11.35;;
60368;SDS011;46208;44.634;10.492;2022-12-24T20:12:35;20.67;;;10.27;;
60368;SDS011;46208;44.634;10.492;2022-12-24T20:15:39;20.42;;;13.85;;
60368;SDS011;46208;44.634;10.492;2022-12-24T20:18:43;26.70;;;12.57;;
60368;SDS011;46208;44.634;10.492;2022-12-24T20:21:46;20.33;;;13.18;;